Time;durP1;ratioP1;P1;durP2;ratioP2;P2;SDS_P1;SDS_P2;PMS_P1;PMS_P2;Temp;Humidity;BMP_temperature;BMP_pressure;BME280_temperature;BME280_humidity;BME280_pressure;Samples;Min_cycle;Max_cycle;Signal;HPM_P1;HPM_P2
2023/04/11 00:03:12;;;;;;;6.97;4.55;;;;;;;;;;13043432;22;20462;-82
2023/04/11 00:08:14;;;;;;;7.40;4.90;;;;;;;;;;13043362;22;20358;-83
2023/04/11 00:13:19;;;;;;;7.32;4.88;;;;;;;;;;13043627;22;20369;-83
2023/04/11 00:18:21;;;;;;;8.55;5.80;;;;;;;;;;13043276;22;20761;-82
2023/04/11 00:23:23;;;;;;;7.65;5.53;;;;;;;;;;13044002;22;20376;-83
2023/04/11 00:28:26;;;;;;;7.20;4.97;;;;;;;;;;13044322;22;20368;-83
2023/04/11 00:33:27;;;;;;;8.13;5.00;;;;;;;;;;13038896;22;20872;-82
2023/04/11 00:38:30;;;;;;;6.07;4.82;;;;;;;;;;13037893;22;20440;-83
2023/04/11 00:43:33;;;;;;;6.60;4.70;;;;;;;;;;13038670;22;20483;-82
2023/04/11 00:48:35;;;;;;;8.30;4.93;;;;;;;;;;13038362;22;20365;-83
2023/04/11 00:53:37;;;;;;;7.07;4.90;;;;;;;;;;13042218;22;20368;-83
2023/04/11 00:58:41;;;;;;;6.68;4.60;;;;;;;;;;13043948;22;20369;-82
2023/04/11 01:03:44;;;;;;;6.63;4.63;;;;;;;;;;13041901;22;20404;-83
2023/04/11 01:08:47;;;;;;;6.50;4.75;;;;;;;;;;13042204;22;20369;-82
2023/04/11 01:13:51;;;;;;;7.68;4.95;;;;;;;;;;13042013;22;20510;-82
2023/04/11 01:18:52;;;;;;;7.88;4.47;;;;;;;;;;13034826;22;20384;-83
2023/04/11 01:23:57;;;;;;;6.23;4.37;;;;;;;;;;13039688;22;20643;-83
2023/04/11 01:28:59;;;;;;;6.35;4.47;;;;;;;;;;13041161;22;20760;-83
2023/04/11 01:34:01;;;;;;;6.38;4.68;;;;;;;;;;13041357;22;20445;-83
2023/04/11 01:39:04;;;;;;;6.32;4.45;;;;;;;;;;13041787;22;20763;-83
2023/04/11 01:44:06;;;;;;;6.45;4.85;;;;;;;;;;13041416;22;20884;-83
2023/04/11 01:49:08;;;;;;;8.95;5.70;;;;;;;;;;13042226;22;20422;-83
2023/04/11 01:54:11;;;;;;;7.78;6.05;;;;;;;;;;13040054;22;20393;-83
2023/04/11 01:59:13;;;;;;;7.65;5.65;;;;;;;;;;13045983;22;20773;-83
2023/04/11 02:04:15;;;;;;;9.40;6.00;;;;;;;;;;13044596;22;20923;-83
2023/04/11 02:09:18;;;;;;;9.82;6.88;;;;;;;;;;13046697;22;20440;-83
2023/04/11 02:14:20;;;;;;;9.05;6.50;;;;;;;;;;13045433;22;20684;-82
2023/04/11 02:19:24;;;;;;;10.18;6.80;;;;;;;;;;13045179;22;20384;-82
2023/04/11 02:24:30;;;;;;;9.30;6.47;;;;;;;;;;13044684;22;20892;-83
2023/04/11 02:29:31;;;;;;;9.83;7.23;;;;;;;;;;13044411;22;20419;-83
2023/04/11 02:34:33;;;;;;;10.20;7.45;;;;;;;;;;13043816;22;20363;-83
2023/04/11 02:39:36;;;;;;;10.63;7.13;;;;;;;;;;13045773;22;20437;-83
2023/04/11 02:44:38;;;;;;;11.37;8.23;;;;;;;;;;13045126;22;20779;-83
2023/04/11 02:49:41;;;;;;;10.95;8.10;;;;;;;;;;13044059;22;20361;-83
2023/04/11 02:54:44;;;;;;;12.40;8.50;;;;;;;;;;13042931;22;20654;-83
2023/04/11 02:59:46;;;;;;;10.93;8.10;;;;;;;;;;13043825;22;20384;-83
2023/04/11 03:04:48;;;;;;;12.05;7.93;;;;;;;;;;13045326;22;20383;-83
2023/04/11 03:09:51;;;;;;;11.02;7.28;;;;;;;;;;13045308;22;20384;-83
2023/04/11 03:14:53;;;;;;;10.77;7.27;;;;;;;;;;13043826;22;20361;-83
2023/04/11 03:19:55;;;;;;;9.60;6.80;;;;;;;;;;13041926;22;20844;-83
2023/04/11 03:24:58;;;;;;;11.07;7.05;;;;;;;;;;13043706;22;20453;-82
2023/04/11 03:30:00;;;;;;;10.15;6.90;;;;;;;;;;13043905;22;20361;-83
2023/04/11 03:35:02;;;;;;;11.27;7.28;;;;;;;;;;13044535;22;20404;-83
2023/04/11 03:40:07;;;;;;;12.00;8.27;;;;;;;;;;13043890;22;20356;-83
2023/04/11 03:45:09;;;;;;;13.23;8.73;;;;;;;;;;13042288;22;20377;-83
2023/04/11 03:50:11;;;;;;;12.35;8.80;;;;;;;;;;13043957;22;20363;-83
2023/04/11 03:55:14;;;;;;;12.45;8.50;;;;;;;;;;13043545;22;20352;-83
2023/04/11 04:00:17;;;;;;;13.77;8.90;;;;;;;;;;13043804;22;20384;-82
2023/04/11 04:05:18;;;;;;;13.50;9.25;;;;;;;;;;13041899;22;20377;-83
2023/04/11 04:10:22;;;;;;;11.90;9.02;;;;;;;;;;13043975;22;20365;-82
2023/04/11 04:15:24;;;;;;;14.00;9.10;;;;;;;;;;13042587;22;20906;-82
2023/04/11 04:20:25;;;;;;;12.60;8.70;;;;;;;;;;13042880;22;20373;-82
2023/04/11 04:25:29;;;;;;;13.75;9.70;;;;;;;;;;13042660;22;20381;-83
2023/04/11 04:30:31;;;;;;;13.77;9.18;;;;;;;;;;13043376;22;20741;-83
2023/04/11 04:35:33;;;;;;;11.38;9.00;;;;;;;;;;13043060;22;20365;-83
2023/04/11 04:40:39;;;;;;;13.82;8.90;;;;;;;;;;13042841;22;20357;-82
2023/04/11 04:45:40;;;;;;;12.43;9.73;;;;;;;;;;13043912;22;20380;-82
2023/04/11 04:50:44;;;;;;;13.23;9.83;;;;;;;;;;13042638;22;20352;-82
2023/04/11 04:55:47;;;;;;;13.57;9.40;;;;;;;;;;13038382;22;20693;-84
2023/04/11 05:00:54;;;;;;;15.87;9.60;;;;;;;;;;13041643;22;20353;-84
2023/04/11 05:05:58;;;;;;;15.52;10.00;;;;;;;;;;13043081;22;20381;-84
2023/04/11 05:11:01;;;;;;;14.52;9.55;;;;;;;;;;13040737;22;20365;-81
2023/04/11 05:16:03;;;;;;;17.83;10.27;;;;;;;;;;13040135;22;20364;-82
2023/04/11 05:21:05;;;;;;;16.52;10.18;;;;;;;;;;13039927;22;20706;-82
2023/04/11 05:26:09;;;;;;;13.33;9.20;;;;;;;;;;13040865;22;20670;-83
2023/04/11 05:31:11;;;;;;;15.85;9.82;;;;;;;;;;13040746;22;20435;-84
2023/04/11 05:36:13;;;;;;;14.05;9.20;;;;;;;;;;13036523;22;20356;-85
2023/04/11 05:41:16;;;;;;;12.60;8.67;;;;;;;;;;13039223;22;20518;-83
2023/04/11 05:46:18;;;;;;;11.32;8.40;;;;;;;;;;13039171;22;20503;-83
2023/04/11 05:51:20;;;;;;;11.13;7.93;;;;;;;;;;13039623;22;20368;-84
2023/04/11 05:56:23;;;;;;;11.30;8.20;;;;;;;;;;13029982;22;20357;-83
2023/04/11 06:01:25;;;;;;;13.52;8.43;;;;;;;;;;13038850;22;20754;-83
2023/04/11 06:06:27;;;;;;;281.97;54.33;;;;;;;;;;13040530;22;20381;-83
2023/04/11 06:11:30;;;;;;;142.47;24.07;;;;;;;;;;13043452;22;20737;-83
2023/04/11 06:16:34;;;;;;;37.15;11.25;;;;;;;;;;13040956;22;20923;-84
2023/04/11 06:21:36;;;;;;;58.60;13.73;;;;;;;;;;13041203;22;20391;-83
2023/04/11 06:26:39;;;;;;;15.60;9.10;;;;;;;;;;13040652;22;20442;-83
2023/04/11 06:31:41;;;;;;;13.02;9.52;;;;;;;;;;13039803;22;20697;-83
2023/04/11 06:36:43;;;;;;;13.43;8.10;;;;;;;;;;13039772;22;20426;-83
2023/04/11 06:41:47;;;;;;;141.75;23.02;;;;;;;;;;13042970;22;20441;-84
2023/04/11 06:46:48;;;;;;;18.63;8.77;;;;;;;;;;13045067;22;20448;-83
2023/04/11 06:51:50;;;;;;;23.77;9.23;;;;;;;;;;13039927;22;20369;-83
2023/04/11 06:56:56;;;;;;;1078.03;163.13;;;;;;;;;;13039935;22;20360;-83
2023/04/11 07:01:58;;;;;;;82.43;13.48;;;;;;;;;;13043446;22;20372;-83
2023/04/11 07:07:00;;;;;;;36.95;10.50;;;;;;;;;;13043076;22;20359;-83
2023/04/11 07:12:04;;;;;;;11.93;8.07;;;;;;;;;;13044221;22;20357;-82
2023/04/11 07:17:05;;;;;;;13.30;8.43;;;;;;;;;;13043003;22;20828;-82
2023/04/11 07:22:07;;;;;;;15.35;8.57;;;;;;;;;;13043649;22;20831;-82
2023/04/11 07:27:12;;;;;;;14.15;8.00;;;;;;;;;;13044813;22;20359;-82
2023/04/11 07:32:14;;;;;;;12.00;8.17;;;;;;;;;;13044365;22;20410;-82
2023/04/11 07:37:16;;;;;;;12.25;8.77;;;;;;;;;;13043602;22;20388;-82
2023/04/11 07:42:20;;;;;;;13.18;8.95;;;;;;;;;;13044211;22;20678;-82
2023/04/11 07:47:21;;;;;;;15.25;8.80;;;;;;;;;;13043415;22;20353;-83
2023/04/11 07:52:23;;;;;;;15.13;8.48;;;;;;;;;;13043624;22;20427;-83
2023/04/11 07:57:27;;;;;;;12.50;8.77;;;;;;;;;;13043536;22;20353;-82
2023/04/11 08:02:28;;;;;;;12.93;8.17;;;;;;;;;;13044116;22;20448;-82
2023/04/11 08:07:30;;;;;;;13.32;8.80;;;;;;;;;;13044305;22;20364;-82
2023/04/11 08:12:33;;;;;;;13.68;8.70;;;;;;;;;;13043047;22;20460;-82
2023/04/11 08:17:37;;;;;;;12.18;8.35;;;;;;;;;;13043240;22;20357;-82
2023/04/11 08:22:38;;;;;;;11.90;8.02;;;;;;;;;;13042398;22;20400;-82
2023/04/11 08:27:42;;;;;;;12.97;8.60;;;;;;;;;;13043373;22;20363;-81
2023/04/11 08:32:43;;;;;;;11.43;8.48;;;;;;;;;;13042390;22;20825;-82
2023/04/11 08:37:45;;;;;;;12.68;8.80;;;;;;;;;;13042666;22;20357;-82
2023/04/11 08:42:49;;;;;;;14.90;8.90;;;;;;;;;;13042757;22;20480;-81
2023/04/11 08:47:51;;;;;;;12.57;9.32;;;;;;;;;;13043174;22;20897;-82
2023/04/11 08:52:53;;;;;;;13.10;9.00;;;;;;;;;;13042847;22;20361;-81
2023/04/11 08:58:01;;;;;;;13.02;8.80;;;;;;;;;;13042228;22;20836;-82
2023/04/11 09:03:05;;;;;;;15.02;8.73;;;;;;;;;;13041806;22;20694;-81
2023/04/11 09:08:08;;;;;;;13.52;9.30;;;;;;;;;;13042590;22;20363;-81
2023/04/11 09:13:23;;;;;;;12.47;8.27;;;;;;;;;;13041884;22;20365;-82
2023/04/11 09:18:32;;;;;;;15.32;9.20;;;;;;;;;;13041625;22;20356;-82
2023/04/11 09:23:33;;;;;;;13.05;8.63;;;;;;;;;;13042257;22;20464;-82
2023/04/11 09:28:44;;;;;;;13.80;9.17;;;;;;;;;;13041094;22;20867;-82
2023/04/11 09:33:53;;;;;;;11.83;8.10;;;;;;;;;;13042588;22;20380;-82
2023/04/11 09:38:55;;;;;;;11.27;7.80;;;;;;;;;;13041634;22;21213;-82
2023/04/11 09:43:59;;;;;;;10.93;7.68;;;;;;;;;;13041401;22;20459;-82
2023/04/11 09:49:01;;;;;;;11.37;7.33;;;;;;;;;;13041863;22;20357;-82
2023/04/11 09:54:03;;;;;;;11.60;7.88;;;;;;;;;;13042251;22;20369;-82
2023/04/11 09:59:07;;;;;;;12.20;7.90;;;;;;;;;;13014791;22;20391;-83
2023/04/11 10:04:09;;;;;;;13.73;7.25;;;;;;;;;;13042836;22;20376;-83
2023/04/11 10:09:13;;;;;;;12.03;7.10;;;;;;;;;;13042961;22;20356;-83
2023/04/11 10:14:45;;;;;;;8.50;6.25;;;;;;;;;;13042583;22;20432;-82
2023/04/11 10:19:50;;;;;;;11.75;6.70;;;;;;;;;;13013912;22;20375;-83
2023/04/11 10:25:16;;;;;;;10.70;7.37;;;;;;;;;;13046165;22;20475;-82
2023/04/11 10:30:39;;;;;;;9.98;6.93;;;;;;;;;;13046476;22;20418;-82
2023/04/11 10:35:56;;;;;;;10.05;6.63;;;;;;;;;;13045183;22;20360;-82
2023/04/11 10:41:15;;;;;;;9.57;6.78;;;;;;;;;;13045650;22;20373;-82
2023/04/11 10:46:20;;;;;;;10.10;6.90;;;;;;;;;;13045509;22;20384;-82
2023/04/11 10:51:26;;;;;;;10.45;6.88;;;;;;;;;;13045242;22;20357;-82
2023/04/11 10:56:56;;;;;;;10.73;7.22;;;;;;;;;;13044860;22;20383;-82
2023/04/11 11:02:00;;;;;;;13.30;7.30;;;;;;;;;;13043847;22;20358;-83
2023/04/11 11:07:04;;;;;;;10.63;7.15;;;;;;;;;;13045196;22;20381;-83
2023/04/11 11:12:06;;;;;;;12.27;7.18;;;;;;;;;;13044449;22;20357;-83
2023/04/11 11:17:12;;;;;;;11.32;7.40;;;;;;;;;;13044704;22;20353;-83
2023/04/11 11:22:17;;;;;;;12.18;7.85;;;;;;;;;;13043964;22;20391;-82
2023/04/11 11:27:19;;;;;;;12.02;7.70;;;;;;;;;;13045410;22;20460;-83
2023/04/11 11:32:25;;;;;;;13.93;8.43;;;;;;;;;;13043733;22;20398;-83
2023/04/11 11:37:27;;;;;;;11.60;8.02;;;;;;;;;;13043282;22;20391;-84
2023/04/11 11:42:29;;;;;;;14.40;8.30;;;;;;;;;;13039819;22;20740;-84
2023/04/11 11:47:41;;;;;;;13.30;8.40;;;;;;;;;;13026869;22;20816;-84
2023/04/11 11:52:43;;;;;;;10.50;8.00;;;;;;;;;;13031964;22;20376;-83
2023/04/11 11:57:45;;;;;;;14.70;8.82;;;;;;;;;;13032676;22;20387;-83
2023/04/11 12:02:51;;;;;;;11.87;8.30;;;;;;;;;;13031495;22;20411;-81
2023/04/11 12:07:54;;;;;;;12.63;8.37;;;;;;;;;;13031646;22;20381;-82
2023/04/11 12:12:56;;;;;;;10.93;8.23;;;;;;;;;;13036042;22;20363;-82
2023/04/11 12:17:59;;;;;;;11.90;8.75;;;;;;;;;;13035991;22;20673;-82
2023/04/11 12:23:01;;;;;;;20.02;9.02;;;;;;;;;;13040199;22;20392;-81
2023/04/11 12:28:02;;;;;;;13.07;8.55;;;;;;;;;;13040930;22;20366;-81
2023/04/11 12:33:06;;;;;;;14.27;8.75;;;;;;;;;;13041425;22;20392;-81
2023/04/11 12:38:08;;;;;;;14.50;9.33;;;;;;;;;;13035017;22;20452;-81
2023/04/11 12:43:10;;;;;;;13.38;8.95;;;;;;;;;;13036038;22;20365;-81
2023/04/11 12:48:13;;;;;;;16.35;9.10;;;;;;;;;;13042445;22;20361;-81
2023/04/11 12:53:14;;;;;;;14.13;9.15;;;;;;;;;;13038688;22;20716;-83
2023/04/11 12:58:17;;;;;;;13.68;9.18;;;;;;;;;;13038692;22;20361;-83
2023/04/11 13:03:21;;;;;;;14.95;8.70;;;;;;;;;;13039284;22;20556;-83
2023/04/11 13:08:23;;;;;;;15.27;8.93;;;;;;;;;;13039422;22;20360;-82
2023/04/11 13:13:25;;;;;;;14.97;9.17;;;;;;;;;;13038904;22;20693;-82
2023/04/11 13:18:28;;;;;;;15.00;9.93;;;;;;;;;;13012892;22;20444;-83
2023/04/11 13:23:30;;;;;;;19.17;10.95;;;;;;;;;;13040095;22;20974;-81
2023/04/11 13:28:33;;;;;;;16.23;9.17;;;;;;;;;;13040599;22;20436;-83
2023/04/11 13:33:36;;;;;;;17.47;9.57;;;;;;;;;;13038127;22;20372;-81
2023/04/11 13:38:38;;;;;;;17.02;9.40;;;;;;;;;;13035400;22;20855;-83
2023/04/11 13:43:40;;;;;;;17.02;9.63;;;;;;;;;;13036375;22;20380;-83
2023/04/11 13:48:43;;;;;;;16.27;9.63;;;;;;;;;;13040267;22;20459;-82
2023/04/11 13:53:45;;;;;;;16.33;10.02;;;;;;;;;;13040707;22;20396;-83
2023/04/11 13:58:47;;;;;;;25.55;13.75;;;;;;;;;;13043200;22;20423;-83
2023/04/11 14:03:51;;;;;;;19.38;11.95;;;;;;;;;;13042359;22;20377;-83
2023/04/11 14:08:52;;;;;;;19.88;11.95;;;;;;;;;;13041824;22;20817;-83
2023/04/11 14:13:54;;;;;;;17.25;10.63;;;;;;;;;;13039401;22;20357;-84
2023/04/11 14:18:57;;;;;;;21.95;12.73;;;;;;;;;;13039979;22;20915;-83
2023/04/11 14:23:59;;;;;;;16.73;9.70;;;;;;;;;;13041531;22;20381;-82
2023/04/11 14:29:01;;;;;;;16.75;9.48;;;;;;;;;;13038847;22;20403;-83
2023/04/11 14:34:05;;;;;;;33.80;10.93;;;;;;;;;;13041090;22;20356;-83
2023/04/11 14:39:07;;;;;;;27.00;10.25;;;;;;;;;;13043112;22;20426;-82
2023/04/11 14:44:08;;;;;;;15.20;9.10;;;;;;;;;;13039971;22;20754;-82
2023/04/11 14:49:12;;;;;;;14.40;8.50;;;;;;;;;;13041720;22;20357;-82
2023/04/11 14:54:14;;;;;;;38.50;10.52;;;;;;;;;;13041520;22;20451;-83
2023/04/11 14:59:16;;;;;;;44.60;11.03;;;;;;;;;;13044271;22;20366;-83
2023/04/11 15:04:19;;;;;;;22.35;6.68;;;;;;;;;;13042893;22;20387;-83
2023/04/11 15:09:21;;;;;;;16.70;6.25;;;;;;;;;;13044549;22;20364;-83
2023/04/11 15:14:28;;;;;;;8.45;5.13;;;;;;;;;;13044885;22;20363;-83
2023/04/11 15:19:31;;;;;;;7.53;5.35;;;;;;;;;;13039687;22;20365;-83
2023/04/11 15:24:33;;;;;;;9.13;5.45;;;;;;;;;;13041066;22;20381;-82
2023/04/11 15:29:35;;;;;;;8.90;5.90;;;;;;;;;;13040755;22;20356;-82
2023/04/11 15:34:39;;;;;;;8.47;5.57;;;;;;;;;;13031326;22;20900;-82
2023/04/11 15:39:40;;;;;;;7.28;5.05;;;;;;;;;;13034607;22;20372;-81
2023/04/11 15:44:42;;;;;;;8.63;5.20;;;;;;;;;;13033926;22;20389;-81
2023/04/11 15:49:46;;;;;;;17.97;10.80;;;;;;;;;;13030418;22;20373;-81
2023/04/11 15:54:47;;;;;;;9.02;6.30;;;;;;;;;;13033836;22;20690;-82
2023/04/11 15:59:49;;;;;;;9.77;5.47;;;;;;;;;;13034190;22;20426;-82
2023/04/11 16:04:53;;;;;;;10.35;5.80;;;;;;;;;;13035519;22;20416;-82
2023/04/11 16:09:56;;;;;;;13.30;7.90;;;;;;;;;;13031876;22;21428;-82
2023/04/11 16:14:58;;;;;;;13.07;8.18;;;;;;;;;;13031873;22;20377;-81
2023/04/11 16:20:03;;;;;;;11.27;7.10;;;;;;;;;;13034715;22;21023;-81
2023/04/11 16:25:05;;;;;;;17.50;10.00;;;;;;;;;;13035393;22;20468;-81
2023/04/11 16:30:08;;;;;;;8.03;5.23;;;;;;;;;;13030614;22;20468;-81
2023/04/11 16:35:11;;;;;;;8.37;5.30;;;;;;;;;;13033107;22;20864;-82
2023/04/11 16:40:14;;;;;;;9.77;6.00;;;;;;;;;;13034999;22;20365;-81
2023/04/11 16:45:16;;;;;;;6.65;5.20;;;;;;;;;;13033430;22;20856;-85
2023/04/11 16:50:19;;;;;;;6.43;5.03;;;;;;;;;;13033416;22;20853;-83
2023/04/11 16:55:21;;;;;;;8.38;5.60;;;;;;;;;;13034067;22;20406;-83
2023/04/11 17:00:23;;;;;;;7.63;5.20;;;;;;;;;;13030722;22;20406;-83
2023/04/11 17:05:26;;;;;;;7.80;5.50;;;;;;;;;;13033554;22;20876;-84
2023/04/11 17:10:28;;;;;;;7.40;5.22;;;;;;;;;;13031115;22;20457;-83
2023/04/11 17:15:30;;;;;;;8.73;5.40;;;;;;;;;;13032654;22;20380;-83
2023/04/11 17:20:33;;;;;;;9.90;5.38;;;;;;;;;;13033281;22;20376;-83
2023/04/11 17:25:35;;;;;;;6.83;4.90;;;;;;;;;;13034192;22;20391;-83
2023/04/11 17:30:37;;;;;;;8.33;5.20;;;;;;;;;;13031762;22;20376;-83
2023/04/11 17:35:40;;;;;;;9.60;5.35;;;;;;;;;;13031500;22;20691;-83
2023/04/11 17:40:42;;;;;;;8.10;5.67;;;;;;;;;;13031946;22;20368;-83
2023/04/11 17:45:44;;;;;;;6.38;5.03;;;;;;;;;;13026183;22;20381;-83
2023/04/11 17:50:47;;;;;;;8.27;5.57;;;;;;;;;;13030477;22;20357;-82
2023/04/11 17:55:50;;;;;;;10.23;6.75;;;;;;;;;;13031760;22;20357;-82
2023/04/11 18:00:52;;;;;;;8.83;6.20;;;;;;;;;;13032995;22;20395;-85
2023/04/11 18:05:57;;;;;;;10.45;6.38;;;;;;;;;;13030459;22;20411;-83
2023/04/11 18:10:59;;;;;;;9.57;6.43;;;;;;;;;;13028374;22;20415;-84
2023/04/11 18:16:01;;;;;;;13.37;8.23;;;;;;;;;;13031803;22;20379;-84
2023/04/11 18:21:04;;;;;;;9.20;6.60;;;;;;;;;;13030802;22;20460;-83
2023/04/11 18:26:06;;;;;;;9.77;6.97;;;;;;;;;;13027183;22;20388;-83
2023/04/11 18:31:09;;;;;;;11.20;7.07;;;;;;;;;;13030413;22;20404;-83
2023/04/11 18:36:12;;;;;;;8.15;6.20;;;;;;;;;;13025156;22;20369;-83
2023/04/11 18:41:15;;;;;;;11.18;7.78;;;;;;;;;;13030424;22;20468;-82
2023/04/11 18:46:17;;;;;;;9.47;6.40;;;;;;;;;;13030248;22;20446;-83
2023/04/11 18:51:20;;;;;;;8.68;6.95;;;;;;;;;;13030969;22;20750;-83
2023/04/11 18:56:22;;;;;;;8.65;6.72;;;;;;;;;;13030343;22;20391;-83
2023/04/11 19:01:24;;;;;;;11.67;7.37;;;;;;;;;;13032589;22;20910;-83
2023/04/11 19:06:27;;;;;;;11.02;7.25;;;;;;;;;;13030254;22;20385;-83
2023/04/11 19:11:29;;;;;;;11.00;7.47;;;;;;;;;;13028232;22;20416;-82
2023/04/11 19:16:32;;;;;;;12.60;8.47;;;;;;;;;;13028910;22;20841;-83
2023/04/11 19:21:35;;;;;;;14.07;9.27;;;;;;;;;;13028879;22;20373;-83
2023/04/11 19:26:37;;;;;;;14.20;9.07;;;;;;;;;;13029138;22;20753;-83
2023/04/11 19:31:39;;;;;;;13.83;9.20;;;;;;;;;;13030104;22;20423;-83
2023/04/11 19:36:42;;;;;;;13.32;8.23;;;;;;;;;;13028068;22;20416;-83
2023/04/11 19:41:45;;;;;;;14.35;8.25;;;;;;;;;;13027602;22;20408;-83
2023/04/11 19:46:47;;;;;;;12.15;8.30;;;;;;;;;;13027733;22;20720;-83
2023/04/11 19:51:51;;;;;;;11.35;8.40;;;;;;;;;;13028492;22;20357;-82
2023/04/11 19:56:53;;;;;;;12.40;8.50;;;;;;;;;;13028586;22;20365;-82
2023/04/11 20:01:55;;;;;;;13.95;9.25;;;;;;;;;;13026535;22;20433;-83
2023/04/11 20:06:59;;;;;;;13.87;10.17;;;;;;;;;;13025992;22;20961;-83
2023/04/11 20:12:02;;;;;;;15.70;10.80;;;;;;;;;;13028653;22;20860;-83
2023/04/11 20:17:05;;;;;;;16.48;10.40;;;;;;;;;;13030077;22;20438;-84
2023/04/11 20:22:09;;;;;;;17.00;10.97;;;;;;;;;;13028858;22;20380;-82
2023/04/11 20:27:11;;;;;;;14.97;10.83;;;;;;;;;;13026483;22;20400;-83
2023/04/11 20:32:13;;;;;;;14.82;10.50;;;;;;;;;;13028504;22;20400;-83
2023/04/11 20:37:18;;;;;;;15.32;11.18;;;;;;;;;;13028754;22;20454;-83
2023/04/11 20:42:20;;;;;;;16.25;11.50;;;;;;;;;;13028210;22;20373;-83
2023/04/11 20:47:22;;;;;;;15.50;11.52;;;;;;;;;;13029871;22;20392;-83
2023/04/11 20:52:25;;;;;;;17.17;12.03;;;;;;;;;;13030059;22;20391;-83
2023/04/11 20:57:29;;;;;;;16.10;11.05;;;;;;;;;;13028558;22;20360;-84
2023/04/11 21:02:31;;;;;;;17.60;11.70;;;;;;;;;;13030461;22;20403;-83
2023/04/11 21:07:36;;;;;;;14.97;10.90;;;;;;;;;;13029232;22;20691;-83
2023/04/11 21:12:38;;;;;;;15.77;11.10;;;;;;;;;;13029430;22;20375;-83
2023/04/11 21:17:40;;;;;;;15.33;10.83;;;;;;;;;;13029096;22;20875;-83
2023/04/11 21:22:43;;;;;;;16.88;11.02;;;;;;;;;;13029450;22;20365;-83
2023/04/11 21:27:45;;;;;;;16.20;11.57;;;;;;;;;;13028251;22;20467;-83
2023/04/11 21:32:47;;;;;;;17.40;11.55;;;;;;;;;;13031145;22;20411;-84
2023/04/11 21:37:50;;;;;;;18.25;11.52;;;;;;;;;;13033393;22;20373;-83
2023/04/11 21:42:54;;;;;;;17.70;12.18;;;;;;;;;;13032803;22;20369;-83
2023/04/11 21:47:56;;;;;;;18.25;12.25;;;;;;;;;;13031386;22;20389;-83
2023/04/11 21:52:59;;;;;;;16.38;11.68;;;;;;;;;;13037427;22;20728;-83
2023/04/11 21:58:01;;;;;;;16.50;11.50;;;;;;;;;;13038922;22;20731;-83
2023/04/11 22:03:06;;;;;;;17.55;11.82;;;;;;;;;;13039787;22;20473;-84
2023/04/11 22:08:18;;;;;;;17.58;11.65;;;;;;;;;;13040992;22;20379;-83
2023/04/11 22:13:20;;;;;;;15.77;11.07;;;;;;;;;;13046382;22;20429;-83
2023/04/11 22:18:25;;;;;;;16.63;12.10;;;;;;;;;;13046691;22;20357;-82
2023/04/11 22:23:28;;;;;;;17.13;11.43;;;;;;;;;;13045458;22;20904;-83
2023/04/11 22:28:30;;;;;;;17.17;11.82;;;;;;;;;;13047273;22;20382;-83
2023/04/11 22:33:32;;;;;;;17.05;11.15;;;;;;;;;;13046107;22;20908;-83
2023/04/11 22:38:37;;;;;;;17.70;12.25;;;;;;;;;;13045659;22;20363;-83
2023/04/11 22:43:38;;;;;;;15.65;11.75;;;;;;;;;;13045697;22;20368;-83
2023/04/11 22:48:40;;;;;;;16.15;11.50;;;;;;;;;;13046449;22;20427;-84
2023/04/11 22:53:47;;;;;;;19.38;12.95;;;;;;;;;;13044750;22;20853;-84
2023/04/11 22:58:48;;;;;;;18.70;12.18;;;;;;;;;;13046393;22;20360;-83
2023/04/11 23:03:50;;;;;;;15.75;11.52;;;;;;;;;;13045807;22;20433;-83
2023/04/11 23:08:53;;;;;;;18.38;11.90;;;;;;;;;;13044883;22;20756;-83
2023/04/11 23:13:56;;;;;;;15.88;10.68;;;;;;;;;;13045664;22;20359;-83
2023/04/11 23:18:58;;;;;;;16.40;10.65;;;;;;;;;;13044365;22;20443;-83
2023/04/11 23:24:01;;;;;;;19.15;11.38;;;;;;;;;;13045377;22;20367;-83
2023/04/11 23:29:03;;;;;;;18.70;12.32;;;;;;;;;;13045333;22;20381;-83
2023/04/11 23:34:05;;;;;;;16.77;10.88;;;;;;;;;;13045197;22;20361;-84
2023/04/11 23:39:09;;;;;;;17.30;11.37;;;;;;;;;;13044044;22;20905;-83
2023/04/11 23:44:10;;;;;;;15.50;11.07;;;;;;;;;;13044888;22;20388;-83
2023/04/11 23:49:12;;;;;;;19.60;10.93;;;;;;;;;;13044588;22;20381;-83
2023/04/11 23:54:15;;;;;;;17.38;11.63;;;;;;;;;;13043786;22;20707;-84
2023/04/11 23:59:17;;;;;;;16.63;11.15;;;;;;;;;;13043994;22;20371;-83
